• Join FlightAware (Why Join?)
  • Login
  • US Flag 
09:50AM EDT


 

Airport Tracker/Info


-or-


 

Live Flight TrackerFlight Track Log ✈ RPA3161 ✈ 18-Jun-2013 ✈ KBTV - KDCA

Flight Track Log - Related Links

Times and Time Zones

All times are in EDT time to prevent confusion due to time zone crossing. See the RPA3161 flight status page for this flight to view local times or setup timezone preferences in your user account.

Time Position Orientation Groundspeed Altitude Reporting Facility
EDT Latitude Longitude Course Direction KTS MPH feet Rate Location/Type
12:48PM 44.4856 -73.2403 235° Southwest 217 250 2,800  Level Boston Center
12:49PM 44.4539 -73.3097 237° Southwest 251 289 5,600 3,240 Climbing Boston Center
12:50PM 44.4136 -73.3992 238° Southwest 267 307 9,300 3,300 Climbing Boston Center
12:51PM 44.1447 -73.9304 241° Southwest  Level FlightAware Approximate
12:51PM 44.3753 -73.4914 240° Southwest 277 319 12,200  Level Boston Center
12:52PM 44.0817 -74.0878 241° Southwest  Level FlightAware Approximate
12:52PM 44.3286 -73.5806 234° Southwest 277 319 14,900  Level Boston Center
12:53PM 44.0132 -74.2404 235° Southwest  Level FlightAware Approximate
12:53PM 44.2447 -73.6225 200° South 289 333 17,500  Level Boston Center
12:54PM 44.1464 -73.6639 197° South 331 381 20,300 2,400 Climbing Boston Center
12:55PM 44.0586 -73.7025 198° South 340 391 22,400 1,320 Climbing Boston Center
12:56PM 43.9644 -73.7408 196° South 350 403 23,000 720 Climbing Boston Center
12:57PM 43.8681 -73.7792 196° South 356 410 23,900 1,200 Climbing Boston Center
12:58PM 43.7717 -73.8172 196° South 361 415 25,700 1,560 Climbing Boston Center
12:59PM 43.6733 -73.8581 197° South 361 415 27,400 1,140 Climbing Boston Center
01:00PM 43.5664 -73.9014 196° South 361 415 28,000 300 Climbing Boston Center
01:01PM 43.4700 -73.9419 197° South 361 415 28,000  Level Boston Center
01:02PM 43.4150 -74.0150 224° Southwest 342 394 28,000  Level Boston Center
01:03PM 43.3894 -74.1828 258° West 316 364 28,000  Level Boston Center
01:04PM 43.3772 -74.3111 263° West 321 369 28,000  Level Boston Center
01:05PM 43.3644 -74.4392 262° West 333 383 28,000  Level Boston Center
01:06PM 43.3519 -74.5644 262° West 338 389 28,000  Level Boston Center
01:07PM 43.3369 -74.6925 261° West 338 389 28,000  Level Boston Center
01:08PM 43.3239 -74.8175 262° West 343 395 28,000  Level Boston Center
01:09PM 43.3086 -74.9453 261° West 343 395 28,000  Level Boston Center
01:10PM 43.2956 -75.0703 262° West 343 395 28,000  Level Boston Center
01:11PM 43.2819 -75.2011 262° West 343 395 28,000  Level Boston Center
01:12PM 43.2617 -75.3428 259° West 348 400 28,000  Level Boston Center
01:13PM 43.2503 -75.4675 263° West 353 406 28,000  Level Boston Center
01:14PM 43.2364 -75.5953 262° West 348 400 28,000  Level Boston Center
01:15PM 43.2203 -75.7197 260° West 348 400 28,000  Level Boston Center
01:16PM 43.2039 -75.8469 260° West 348 400 28,000  Level Boston Center
01:17PM 43.1897 -75.9744 261° West 348 400 28,000  Level Boston Center
01:18PM 43.1753 -76.1019 261° West 348 400 28,000  Level Boston Center
01:19PM 43.1422 -76.2194 249° West 348 400 28,000  Level Boston Center
01:22PM 42.9267 -76.4033 212° Southwest 344 396 28,000  Level Cleveland Center
01:24PM 42.7317 -76.5589 210° Southwest 356 410 28,000  Level New York Center
01:25PM 42.6492 -76.6250 211° Southwest 356 410 28,000  Level New York Center
01:26PM 42.5667 -76.6933 211° Southwest 351 404 28,000  Level New York Center
01:27PM 42.4844 -76.7592 211° Southwest 351 404 28,000  Level New York Center
01:28PM 42.3997 -76.8272 211° Southwest 351 404 28,000  Level New York Center
01:29PM 42.3153 -76.8950 211° Southwest 351 404 28,000  Level New York Center
01:30PM 42.2328 -76.9603 210° Southwest 351 404 28,000  Level New York Center
01:31PM 42.1500 -77.0308 212° Southwest 351 404 28,000  Level New York Center
01:32PM 42.0631 -77.0981 210° Southwest 351 404 28,000  Level New York Center
01:33PM 41.9803 -77.1683 212° Southwest 351 404 28,000  Level New York Center
01:34PM 41.8869 -77.2372 209° Southwest 351 404 28,000  Level New York Center
01:35PM 41.8042 -77.3044 211° Southwest 351 404 28,000  Level New York Center
01:36PM 41.7211 -77.3714 211° Southwest 351 404 28,000  Level New York Center
01:37PM 41.6386 -77.4353 210° Southwest 351 404 28,000  Level New York Center
01:38PM 41.5536 -77.5017 210° Southwest 351 404 28,000  Level New York Center
01:39PM 41.4686 -77.5681 210° Southwest 351 404 28,000  Level New York Center
01:40PM 41.3922 -77.6267 210° Southwest 351 404 28,000 -360 Level New York Center
01:41PM 41.3069 -77.6956 211° Southwest 357 411 27,400 -900 Descending New York Center
01:42PM 41.2219 -77.7586 209° Southwest 357 411 26,300 -1,200 Descending New York Center
01:43PM 41.1369 -77.8242 210° Southwest 352 405 25,100 -1,140 Descending New York Center
01:44PM 41.0517 -77.8894 210° Southwest 352 405 24,000 -720 Descending New York Center
01:45PM 40.9611 -77.9406 203° Southwest 352 405 23,700 -960 Descending New York Center
01:46PM 40.8639 -77.9250 173° South 343 395 22,200 -1,500 Descending New York Center
01:47PM 40.7872 -77.8511 144° Southeast 322 371 20,700 -1,500 Descending New York Center
01:48PM 40.7150 -77.7669 139° Southeast 322 371 19,200 -900 Descending New York Center
01:49PM 40.6428 -77.6828 139° Southeast 341 392 19,000 -120 Descending New York Center
01:50PM 40.5625 -77.5956 140° Southeast 349 402 19,000  Level New York Center
01:51PM 40.4978 -77.5208 139° Southeast 349 402 19,000  Level New York Center
01:52PM 40.4194 -77.4342 140° Southeast 349 402 19,000  Level New York Center
01:53PM 40.3569 -77.3600 138° Southeast 343 395 19,000  Level New York Center
01:54PM 40.2764 -77.2708 140° Southeast 336 387 19,000  Level New York Center
01:55PM 40.2056 -77.1933 140° Southeast 341 392 19,000  Level New York Center
01:56PM 40.1328 -77.1133 140° Southeast 341 392 19,000  Level New York Center
01:57PM 40.0619 -77.0308 138° Southeast 341 392 19,000  Level New York Center
01:58PM 39.9892 -76.9514 140° Southeast 341 392 19,000  Level New York Center
01:59PM 39.9203 -76.8719 138° Southeast 336 387 19,000  Level New York Center
02:00PM 39.8469 -76.7953 141° Southeast 341 392 19,000 -300 Level New York Center
02:01PM 39.7761 -76.7164 139° Southeast 336 387 18,500 -1,140 Descending New York Center
02:02PM 39.7069 -76.6403 140° Southeast 336 387 16,800 -1,740 Descending New York Center
02:03PM 39.6261 -76.6256 172° South 284 327 15,000 -1,560 Descending New York Center
02:04PM 39.5489 -76.6272 181° South 284 327 13,700 -1,020 Descending New York Center
02:05PM 39.4797 -76.6375 187° South 269 310 13,000 -360 Descending New York Center
02:06PM 39.4678 -76.7092 258° West 184 212 13,000  Level New York Center
02:07PM 39.5461 -76.7239 352° North 135 155 13,000  Level New York Center
02:08PM 39.6103 -76.6942 20° North 189 217 13,000  Level New York Center
02:09PM 39.5678 -76.6286 130° Southeast 126 145 13,000  Level New York Center
02:10PM 39.5072 -76.6292 180° South 195 224 13,000  Level New York Center
02:11PM 39.4650 -76.6819 224° Southwest 214 246 13,000  Level New York Center
02:12PM 39.5192 -76.7217 331° Northwest 125 144 13,000  Level New York Center
02:13PM 39.5992 -76.7067 North 157 181 13,000  Level New York Center
02:14PM 39.5883 -76.6331 101° East 177 204 13,000  Level New York Center
02:15PM 39.5175 -76.6300 178° South 159 183 13,000  Level New York Center
02:16PM 39.4681 -76.6608 206° Southwest 194 223 13,000  Level New York Center
02:17PM 39.5000 -76.7167 307° West 271 312 13,000 -300 Level Potomac TRACON
02:18PM 39.5667 -76.6833 21° North 290 334 12,500 -540 Descending Potomac TRACON
02:19PM 39.5333 -76.6167 123° Southeast 304 350 12,000 -300 Descending Potomac TRACON
02:20PM 39.4500 -76.6167 180° South 281 323 12,000 -360 Level Potomac TRACON
02:21PM 39.3667 -76.6333 189° South 279 321 11,300 -960 Descending Potomac TRACON
02:22PM 39.2833 -76.6500 189° South 288 331 10,000 -660 Descending Potomac TRACON
02:23PM 39.2000 -76.6667 189° South 284 327 10,000  Level Potomac TRACON
02:24PM 39.1500 -76.7000 207° Southwest 289 333 10,000  Level Potomac TRACON
02:25PM 39.0833 -76.7667 218° Southwest 287 330 10,000 -60 Level Potomac TRACON
02:26PM 39.0167 -76.8500 224° Southwest 265 305 9,900 -720 Descending Potomac TRACON
02:27PM 38.9667 -76.9000 218° Southwest 236 272 8,600 -1,500 Descending Potomac TRACON
02:28PM 38.9167 -76.9500 218° Southwest 237 273 7,000 -1,320 Descending Potomac TRACON
02:29PM 38.8500 -76.9500 180° South 219 252 6,000 -1,080 Descending Potomac TRACON
02:30PM 38.8000 -76.9500 180° South 195 224 4,800 -1,380 Descending Potomac TRACON
02:31PM 38.7500 -76.9333 165° South 193 222 3,300 -1,620 Descending Potomac TRACON
02:32PM 38.7000 -76.9667 207° Southwest 191 220 1,700 -900 Descending Potomac TRACON
02:33PM 38.7000 -77.0167 270° West 193 222 1,600 -120 Descending Potomac TRACON